Time;durP1;ratioP1;P1;durP2;ratioP2;P2;SDS_P1;SDS_P2;PMS_P1;PMS_P2;Temp;Humidity;BMP_temperature;BMP_pressure;BME280_temperature;BME280_humidity;BME280_pressure;Samples;Min_cycle;Max_cycle;Signal;HPM_P1;HPM_P2
2023/12/22 00:01:15;;;;;;;22.67;4.07;;;;;;;;;;5014492;28;20050;-65
2023/12/22 00:03:41;;;;;;;30.60;5.53;;;;;;;;;;5023452;28;20058;-65
2023/12/22 00:06:07;;;;;;;37.03;6.97;;;;;;;;;;5031589;28;20045;-65
2023/12/22 00:08:33;;;;;;;25.20;4.67;;;;;;;;;;5032341;28;20092;-65
2023/12/22 00:10:59;;;;;;;39.73;5.90;;;;;;;;;;5030431;28;20052;-65
2023/12/22 00:13:25;;;;;;;24.53;4.73;;;;;;;;;;5029804;28;20082;-65
2023/12/22 00:15:51;;;;;;;29.17;5.50;;;;;;;;;;5030632;28;20100;-65
2023/12/22 00:18:17;;;;;;;20.83;4.57;;;;;;;;;;5031397;28;20053;-65
2023/12/22 00:20:43;;;;;;;16.57;3.70;;;;;;;;;;5032062;28;20044;-64
2023/12/22 00:23:09;;;;;;;15.97;3.70;;;;;;;;;;5031253;28;20132;-64
2023/12/22 00:25:35;;;;;;;19.10;3.23;;;;;;;;;;5030870;28;20060;-64
2023/12/22 00:28:01;;;;;;;23.37;3.83;;;;;;;;;;5031821;28;20068;-65
2023/12/22 00:30:27;;;;;;;20.27;4.83;;;;;;;;;;5030684;28;20062;-65
2023/12/22 00:32:53;;;;;;;24.77;4.50;;;;;;;;;;5031100;28;20503;-65
2023/12/22 00:35:19;;;;;;;17.57;3.33;;;;;;;;;;5030830;28;20096;-65
2023/12/22 00:37:45;;;;;;;17.00;2.83;;;;;;;;;;5031701;28;20041;-64
2023/12/22 00:40:11;;;;;;;19.70;3.93;;;;;;;;;;5051124;28;20045;-64
2023/12/22 00:42:37;;;;;;;20.40;3.53;;;;;;;;;;5050792;28;20065;-64
2023/12/22 00:45:03;;;;;;;20.00;3.60;;;;;;;;;;5051029;28;20048;-65
2023/12/22 00:47:29;;;;;;;24.27;4.57;;;;;;;;;;5050165;28;20139;-65
2023/12/22 00:49:55;;;;;;;21.40;3.10;;;;;;;;;;5050065;28;20044;-64
2023/12/22 00:52:21;;;;;;;17.90;4.97;;;;;;;;;;5050326;28;20059;-65
2023/12/22 00:54:47;;;;;;;20.07;4.40;;;;;;;;;;5048719;28;20041;-65
2023/12/22 00:57:14;;;;;;;18.27;3.30;;;;;;;;;;5049947;28;20052;-65
2023/12/22 00:59:47;;;;;;;23.80;5.30;;;;;;;;;;5050923;28;20525;-65
2023/12/22 01:02:13;;;;;;;18.50;4.15;;;;;;;;;;5050476;28;20045;-65
2023/12/22 01:04:39;;;;;;;23.07;3.57;;;;;;;;;;5038496;28;20184;-64
2023/12/22 01:07:07;;;;;;;18.97;3.50;;;;;;;;;;5030473;28;20147;-64
2023/12/22 01:09:33;;;;;;;23.63;6.83;;;;;;;;;;5030419;28;20099;-65
2023/12/22 01:12:02;;;;;;;27.10;5.07;;;;;;;;;;5030512;28;20045;-65
2023/12/22 01:14:28;;;;;;;26.67;4.70;;;;;;;;;;5028097;28;20046;-65
2023/12/22 01:16:54;;;;;;;23.57;4.47;;;;;;;;;;5029766;28;20056;-65
2023/12/22 01:19:20;;;;;;;20.67;4.23;;;;;;;;;;5029705;28;20045;-64
2023/12/22 01:21:47;;;;;;;24.23;4.33;;;;;;;;;;5028928;28;20053;-64
2023/12/22 01:24:13;;;;;;;18.33;5.37;;;;;;;;;;5030363;28;20052;-65
2023/12/22 01:26:39;;;;;;;18.40;4.43;;;;;;;;;;5029707;28;20079;-65
2023/12/22 01:29:05;;;;;;;19.10;3.20;;;;;;;;;;5028898;28;20041;-65
2023/12/22 01:31:31;;;;;;;20.50;3.70;;;;;;;;;;5028366;28;20136;-65
2023/12/22 01:33:57;;;;;;;25.93;4.53;;;;;;;;;;5028998;28;20041;-65
2023/12/22 01:36:23;;;;;;;27.97;5.07;;;;;;;;;;5029185;28;20419;-65
2023/12/22 01:38:49;;;;;;;16.80;3.13;;;;;;;;;;5028350;28;20037;-65
2023/12/22 01:41:15;;;;;;;20.97;4.03;;;;;;;;;;5028750;28;20041;-65
2023/12/22 01:43:41;;;;;;;34.87;4.90;;;;;;;;;;5028814;28;20123;-64
2023/12/22 01:46:08;;;;;;;19.20;3.63;;;;;;;;;;5012363;28;20056;-65
2023/12/22 01:48:34;;;;;;;15.70;2.90;;;;;;;;;;5028535;28;20045;-64
2023/12/22 01:51:00;;;;;;;16.57;4.50;;;;;;;;;;5028779;28;20057;-64
2023/12/22 01:53:27;;;;;;;17.20;3.10;;;;;;;;;;5028377;28;20047;-65
2023/12/22 01:55:53;;;;;;;20.67;3.83;;;;;;;;;;5028629;28;20080;-65
2023/12/22 01:58:20;;;;;;;19.90;3.67;;;;;;;;;;5029267;28;20088;-65
2023/12/22 02:00:46;;;;;;;16.23;3.17;;;;;;;;;;5029502;28;20380;-65
2023/12/22 02:03:13;;;;;;;12.70;2.53;;;;;;;;;;5029329;28;20059;-65
2023/12/22 02:05:41;;;;;;;17.87;3.57;;;;;;;;;;5028428;28;20128;-64
2023/12/22 02:08:07;;;;;;;15.40;2.87;;;;;;;;;;5028433;28;20506;-64
2023/12/22 02:10:33;;;;;;;14.27;2.80;;;;;;;;;;5027816;28;20045;-64
2023/12/22 02:12:59;;;;;;;18.50;4.30;;;;;;;;;;5029508;28;20052;-65
2023/12/22 02:15:25;;;;;;;17.30;3.30;;;;;;;;;;5029406;28;20522;-64
2023/12/22 02:18:07;;;;;;;12.57;2.83;;;;;;;;;;5014048;28;20045;-64
2023/12/22 02:20:33;;;;;;;19.93;4.03;;;;;;;;;;5027484;28;20056;-64
2023/12/22 02:22:59;;;;;;;14.10;3.20;;;;;;;;;;5029822;28;20045;-64
2023/12/22 02:25:25;;;;;;;17.53;4.37;;;;;;;;;;5029076;28;20048;-65
2023/12/22 02:27:55;;;;;;;16.47;2.90;;;;;;;;;;5029261;28;20045;-64
2023/12/22 02:30:29;;;;;;;13.83;3.40;;;;;;;;;;5046057;28;20052;-64
2023/12/22 02:32:59;;;;;;;24.20;3.73;;;;;;;;;;5049173;28;20178;-65
2023/12/22 02:35:27;;;;;;;35.53;5.57;;;;;;;;;;5048608;28;20483;-66
2023/12/22 02:37:53;;;;;;;21.40;3.40;;;;;;;;;;5038281;28;20041;-65
2023/12/22 02:40:20;;;;;;;21.37;2.53;;;;;;;;;;5028862;28;20041;-65
2023/12/22 02:42:46;;;;;;;12.13;2.40;;;;;;;;;;5028666;28;20047;-65
2023/12/22 02:45:16;;;;;;;14.63;2.47;;;;;;;;;;5029071;28;20053;-65
2023/12/22 02:47:42;;;;;;;29.97;3.40;;;;;;;;;;5028452;28;20061;-65
2023/12/22 02:50:08;;;;;;;11.83;2.17;;;;;;;;;;5028832;28;20045;-64
2023/12/22 02:52:35;;;;;;;19.50;2.83;;;;;;;;;;5028886;28;20049;-65
2023/12/22 02:55:01;;;;;;;16.93;3.40;;;;;;;;;;5029719;28;20403;-64
2023/12/22 02:57:27;;;;;;;18.03;2.90;;;;;;;;;;5028008;28;20038;-65
2023/12/22 02:59:53;;;;;;;12.17;2.83;;;;;;;;;;5028921;28;20044;-65
2023/12/22 03:02:19;;;;;;;26.40;3.27;;;;;;;;;;5028738;28;20049;-66
2023/12/22 03:04:48;;;;;;;16.77;2.70;;;;;;;;;;5028528;28;20076;-65
2023/12/22 03:07:14;;;;;;;31.43;3.07;;;;;;;;;;5029084;28;20096;-65
2023/12/22 03:09:40;;;;;;;17.43;3.17;;;;;;;;;;5028914;28;20046;-65
2023/12/22 03:12:07;;;;;;;8.47;1.83;;;;;;;;;;5029087;28;20042;-65
2023/12/22 03:14:33;;;;;;;5.83;1.40;;;;;;;;;;5027243;28;20076;-66
2023/12/22 03:17:09;;;;;;;11.60;1.50;;;;;;;;;;5028039;28;20431;-65
2023/12/22 03:19:35;;;;;;;8.17;1.27;;;;;;;;;;5026265;28;20085;-65
2023/12/22 03:22:01;;;;;;;6.47;1.67;;;;;;;;;;5027672;28;20077;-65
2023/12/22 03:24:28;;;;;;;5.77;0.80;;;;;;;;;;5027837;28;20055;-65
2023/12/22 03:26:54;;;;;;;7.80;1.17;;;;;;;;;;5028146;28;20052;-65
2023/12/22 03:29:20;;;;;;;7.03;1.63;;;;;;;;;;5039093;28;20034;-65
2023/12/22 03:31:46;;;;;;;8.20;1.33;;;;;;;;;;5028028;28;20053;-65
2023/12/22 03:34:13;;;;;;;6.23;1.40;;;;;;;;;;5016058;28;20813;-65
2023/12/22 03:36:39;;;;;;;6.03;1.03;;;;;;;;;;5027394;28;20045;-65
2023/12/22 03:39:05;;;;;;;8.10;1.03;;;;;;;;;;5030934;28;20056;-65
2023/12/22 03:41:31;;;;;;;11.90;2.60;;;;;;;;;;5031529;28;21182;-65
2023/12/22 03:43:58;;;;;;;10.37;1.67;;;;;;;;;;5030940;28;20060;-65
2023/12/22 03:46:24;;;;;;;9.97;1.07;;;;;;;;;;5031005;28;20507;-65
2023/12/22 03:48:51;;;;;;;14.27;1.87;;;;;;;;;;5026595;28;20689;-65
2023/12/22 03:51:17;;;;;;;5.90;2.23;;;;;;;;;;5011255;28;20057;-65
2023/12/22 03:53:43;;;;;;;11.40;1.70;;;;;;;;;;5023517;28;20415;-65
2023/12/22 03:56:09;;;;;;;14.77;2.40;;;;;;;;;;5030654;28;20504;-65
2023/12/22 03:58:36;;;;;;;10.53;1.73;;;;;;;;;;5031686;28;20045;-65
2023/12/22 04:01:02;;;;;;;13.33;1.87;;;;;;;;;;5031460;28;20060;-65
2023/12/22 04:03:28;;;;;;;10.07;2.37;;;;;;;;;;5031943;28;20099;-65
2023/12/22 04:05:54;;;;;;;16.63;3.27;;;;;;;;;;5031757;28;20061;-65
2023/12/22 04:08:20;;;;;;;21.77;2.53;;;;;;;;;;5029690;28;20061;-65
2023/12/22 04:10:46;;;;;;;25.20;3.23;;;;;;;;;;5028569;28;20045;-65
2023/12/22 04:13:12;;;;;;;22.30;4.03;;;;;;;;;;5020988;28;20069;-65
2023/12/22 04:15:39;;;;;;;20.63;2.63;;;;;;;;;;5030725;28;20045;-65
2023/12/22 04:18:05;;;;;;;28.93;3.70;;;;;;;;;;5031170;28;20051;-65
2023/12/22 04:20:31;;;;;;;32.53;6.17;;;;;;;;;;5031252;28;20054;-65
2023/12/22 04:22:57;;;;;;;22.97;3.80;;;;;;;;;;5030194;28;20046;-65
2023/12/22 04:25:25;;;;;;;23.23;4.27;;;;;;;;;;5030729;28;20060;-65
2023/12/22 04:27:51;;;;;;;24.27;3.87;;;;;;;;;;5030429;28;20408;-65
2023/12/22 04:30:17;;;;;;;26.47;3.43;;;;;;;;;;5030817;28;20505;-65
2023/12/22 04:32:43;;;;;;;33.33;5.80;;;;;;;;;;5018641;28;20069;-65
2023/12/22 04:35:09;;;;;;;23.37;4.03;;;;;;;;;;5020838;28;20052;-65
2023/12/22 04:37:35;;;;;;;37.87;5.57;;;;;;;;;;5030017;28;20045;-65
2023/12/22 04:40:01;;;;;;;24.87;5.97;;;;;;;;;;5030676;28;20041;-65
2023/12/22 04:42:28;;;;;;;19.57;3.07;;;;;;;;;;5012521;28;20069;-64
2023/12/22 04:44:54;;;;;;;15.03;3.43;;;;;;;;;;5030785;28;20049;-65
2023/12/22 04:47:20;;;;;;;34.13;4.47;;;;;;;;;;5031009;28;20063;-65
2023/12/22 04:49:46;;;;;;;22.00;3.40;;;;;;;;;;5030365;28;20049;-65
2023/12/22 04:52:12;;;;;;;27.90;5.63;;;;;;;;;;5030801;28;20054;-65
2023/12/22 04:54:39;;;;;;;20.57;4.33;;;;;;;;;;5031261;28;20057;-65
2023/12/22 04:57:05;;;;;;;32.93;4.87;;;;;;;;;;5030985;28;20088;-65
2023/12/22 04:59:31;;;;;;;19.63;3.87;;;;;;;;;;5030215;28;20518;-65
2023/12/22 05:01:57;;;;;;;23.70;5.37;;;;;;;;;;5030904;28;20049;-65
2023/12/22 05:04:23;;;;;;;30.37;3.97;;;;;;;;;;5030438;28;20068;-65
2023/12/22 05:06:49;;;;;;;24.73;4.43;;;;;;;;;;5030227;28;20084;-65
2023/12/22 05:09:16;;;;;;;15.40;3.33;;;;;;;;;;5031369;28;20104;-65
2023/12/22 05:11:42;;;;;;;21.07;4.17;;;;;;;;;;5046226;28;20503;-65
2023/12/22 05:14:08;;;;;;;17.67;3.40;;;;;;;;;;5050451;28;20629;-65
2023/12/22 05:16:34;;;;;;;22.70;4.43;;;;;;;;;;5050144;28;20041;-65
2023/12/22 05:19:00;;;;;;;27.80;4.83;;;;;;;;;;5050641;28;20504;-65
2023/12/22 05:21:27;;;;;;;26.43;4.70;;;;;;;;;;5050376;28;20456;-65
2023/12/22 05:23:54;;;;;;;18.67;3.10;;;;;;;;;;5050422;28;20052;-65
2023/12/22 05:26:20;;;;;;;26.83;5.20;;;;;;;;;;5050077;28;20041;-65
2023/12/22 05:28:46;;;;;;;25.10;5.13;;;;;;;;;;5048731;28;20072;-65
2023/12/22 05:31:13;;;;;;;20.70;3.60;;;;;;;;;;5017553;28;20052;-65
2023/12/22 05:33:39;;;;;;;16.77;3.57;;;;;;;;;;5028119;28;20088;-65
2023/12/22 05:36:05;;;;;;;21.63;3.30;;;;;;;;;;5030111;28;20045;-65
2023/12/22 05:38:31;;;;;;;25.27;4.40;;;;;;;;;;5029332;28;20472;-65
2023/12/22 05:40:58;;;;;;;24.60;6.37;;;;;;;;;;5029483;28;20517;-65
2023/12/22 05:43:24;;;;;;;20.00;3.53;;;;;;;;;;5029469;28;20064;-65
2023/12/22 05:45:50;;;;;;;23.73;4.73;;;;;;;;;;5048061;28;20057;-65
2023/12/22 05:48:16;;;;;;;21.50;4.33;;;;;;;;;;5049437;28;20107;-65
2023/12/22 05:50:42;;;;;;;24.90;3.47;;;;;;;;;;5049463;28;20056;-65
2023/12/22 05:53:10;;;;;;;18.37;3.73;;;;;;;;;;5049537;28;20045;-65
2023/12/22 05:55:36;;;;;;;27.23;6.90;;;;;;;;;;5049516;28;20063;-65
2023/12/22 05:58:02;;;;;;;24.27;4.57;;;;;;;;;;5049760;28;20048;-65
2023/12/22 06:00:28;;;;;;;28.93;4.23;;;;;;;;;;5036596;28;20053;-65
2023/12/22 06:02:55;;;;;;;30.10;3.77;;;;;;;;;;5028981;28;20056;-65
2023/12/22 06:05:21;;;;;;;20.53;3.93;;;;;;;;;;5029453;28;20053;-65
2023/12/22 06:07:48;;;;;;;23.17;4.13;;;;;;;;;;5014893;28;20096;-65
2023/12/22 06:10:14;;;;;;;23.67;3.33;;;;;;;;;;5026200;28;20393;-65
2023/12/22 06:12:40;;;;;;;20.30;4.50;;;;;;;;;;5029046;28;20049;-65
2023/12/22 06:15:06;;;;;;;19.07;3.40;;;;;;;;;;5029449;28;20061;-65
2023/12/22 06:17:32;;;;;;;23.10;3.93;;;;;;;;;;5028945;28;20049;-64
2023/12/22 06:19:58;;;;;;;22.97;4.40;;;;;;;;;;5048213;28;20415;-64
2023/12/22 06:22:24;;;;;;;22.10;4.43;;;;;;;;;;5049491;28;20407;-65
2023/12/22 06:24:51;;;;;;;21.53;3.83;;;;;;;;;;5049468;28;20099;-65
2023/12/22 06:27:17;;;;;;;20.40;4.77;;;;;;;;;;5049428;28;20084;-65
2023/12/22 06:29:43;;;;;;;20.53;3.27;;;;;;;;;;5036222;28;20096;-65
2023/12/22 06:32:09;;;;;;;21.73;3.10;;;;;;;;;;5028894;28;20053;-65
2023/12/22 06:34:35;;;;;;;21.27;3.47;;;;;;;;;;5028653;28;20041;-65
2023/12/22 06:37:01;;;;;;;27.17;3.87;;;;;;;;;;5048005;28;20049;-65
2023/12/22 06:39:27;;;;;;;23.93;3.97;;;;;;;;;;5048736;28;20107;-64
2023/12/22 06:41:53;;;;;;;27.47;4.00;;;;;;;;;;5048481;28;20056;-65
2023/12/22 06:44:19;;;;;;;23.77;3.73;;;;;;;;;;5048686;28;20045;-64
2023/12/22 06:46:45;;;;;;;25.90;3.97;;;;;;;;;;5048221;28;20056;-64
2023/12/22 06:49:11;;;;;;;25.07;5.23;;;;;;;;;;5048304;28;20052;-65
2023/12/22 06:51:37;;;;;;;20.10;5.00;;;;;;;;;;5048523;28;20049;-65
2023/12/22 06:54:07;;;;;;;29.17;6.10;;;;;;;;;;5029461;28;20053;-64
2023/12/22 06:56:34;;;;;;;21.43;3.80;;;;;;;;;;5027880;28;20043;-65
2023/12/22 06:59:00;;;;;;;26.43;4.20;;;;;;;;;;5027608;28;20041;-64
2023/12/22 07:01:31;;;;;;;23.33;4.00;;;;;;;;;;5039167;28;20071;-65
2023/12/22 07:03:57;;;;;;;19.90;3.50;;;;;;;;;;5048716;28;20056;-64
2023/12/22 07:06:26;;;;;;;19.07;3.83;;;;;;;;;;5035752;28;20383;-64
2023/12/22 07:09:18;;;;;;;27.27;4.87;;;;;;;;;;5028695;28;20057;-64
2023/12/22 07:11:47;;;;;;;21.23;3.77;;;;;;;;;;5031034;28;20049;-64
2023/12/22 07:14:13;;;;;;;22.63;3.33;;;;;;;;;;5031782;28;20053;-64
2023/12/22 07:16:39;;;;;;;32.60;5.50;;;;;;;;;;5032415;28;20045;-64
2023/12/22 07:19:05;;;;;;;21.17;4.83;;;;;;;;;;5032667;28;20117;-65
2023/12/22 07:21:31;;;;;;;16.83;3.70;;;;;;;;;;5031531;28;20535;-64
2023/12/22 07:23:58;;;;;;;20.77;3.60;;;;;;;;;;5031232;28;20041;-64
2023/12/22 07:26:26;;;;;;;21.20;3.77;;;;;;;;;;5032272;28;20495;-64
2023/12/22 07:28:52;;;;;;;20.97;5.17;;;;;;;;;;5030547;28;20045;-64
2023/12/22 07:31:18;;;;;;;20.93;3.70;;;;;;;;;;5030257;28;20565;-64
2023/12/22 07:33:44;;;;;;;19.53;3.23;;;;;;;;;;5032264;28;20041;-64
2023/12/22 07:36:10;;;;;;;23.63;5.13;;;;;;;;;;5032192;28;20434;-64
2023/12/22 07:38:36;;;;;;;18.67;3.83;;;;;;;;;;5029417;28;20041;-64
2023/12/22 07:41:03;;;;;;;13.37;3.77;;;;;;;;;;5032692;28;20136;-64
2023/12/22 07:43:29;;;;;;;20.73;3.60;;;;;;;;;;5032080;28;20080;-64
2023/12/22 07:45:55;;;;;;;19.00;3.77;;;;;;;;;;5030707;28;20547;-64
2023/12/22 07:48:21;;;;;;;18.57;3.20;;;;;;;;;;5031363;28;20132;-65
2023/12/22 07:50:47;;;;;;;12.63;3.00;;;;;;;;;;5031684;28;20050;-64
2023/12/22 07:53:15;;;;;;;13.70;3.13;;;;;;;;;;5032276;28;20044;-64
2023/12/22 07:55:41;;;;;;;31.10;4.73;;;;;;;;;;5032068;28;20633;-64
2023/12/22 07:58:08;;;;;;;18.53;4.47;;;;;;;;;;5032024;28;20053;-64
2023/12/22 08:00:34;;;;;;;17.17;3.53;;;;;;;;;;5032493;28;20045;-64
2023/12/22 08:03:00;;;;;;;16.70;4.43;;;;;;;;;;5031446;28;20053;-64
2023/12/22 08:05:26;;;;;;;23.40;3.63;;;;;;;;;;5031740;28;20498;-64
2023/12/22 08:07:52;;;;;;;20.73;3.33;;;;;;;;;;5031214;28;20046;-65
2023/12/22 08:10:19;;;;;;;20.73;4.43;;;;;;;;;;5032565;28;20049;-65
2023/12/22 08:12:45;;;;;;;14.97;3.23;;;;;;;;;;5031598;28;20057;-64
2023/12/22 08:15:11;;;;;;;24.50;3.10;;;;;;;;;;5031445;28;20099;-64
2023/12/22 08:17:37;;;;;;;21.07;4.77;;;;;;;;;;5031430;28;20107;-64
2023/12/22 08:20:07;;;;;;;11.73;3.57;;;;;;;;;;5031960;28;20041;-65
2023/12/22 08:22:34;;;;;;;16.47;3.43;;;;;;;;;;5031499;28;20128;-64
2023/12/22 08:25:00;;;;;;;16.83;3.30;;;;;;;;;;5031597;28;20510;-64
2023/12/22 08:27:26;;;;;;;21.77;4.30;;;;;;;;;;5031359;28;20053;-64
2023/12/22 08:29:52;;;;;;;15.90;3.00;;;;;;;;;;5031066;28;20042;-64
2023/12/22 08:32:19;;;;;;;16.63;2.50;;;;;;;;;;5030258;28;20136;-64
2023/12/22 08:34:45;;;;;;;15.33;3.47;;;;;;;;;;5030062;28;20049;-64
2023/12/22 08:37:11;;;;;;;14.50;2.97;;;;;;;;;;5029716;28;20129;-65
2023/12/22 08:39:38;;;;;;;14.73;2.70;;;;;;;;;;5030066;28;20045;-65
2023/12/22 08:42:04;;;;;;;23.13;4.10;;;;;;;;;;5028335;28;20057;-65
2023/12/22 08:44:31;;;;;;;15.87;2.53;;;;;;;;;;5030379;28;20049;-65
2023/12/22 08:46:57;;;;;;;14.90;2.50;;;;;;;;;;5031071;28;20175;-65
2023/12/22 08:49:23;;;;;;;13.33;2.50;;;;;;;;;;5030236;28;20529;-65
2023/12/22 08:51:49;;;;;;;14.67;2.63;;;;;;;;;;5028842;28;20089;-65
2023/12/22 08:54:15;;;;;;;22.07;3.57;;;;;;;;;;5029860;28;20462;-65
2023/12/22 08:56:41;;;;;;;12.90;2.27;;;;;;;;;;5029869;28;20041;-65
2023/12/22 08:59:08;;;;;;;11.40;2.00;;;;;;;;;;5029559;28;20042;-64
2023/12/22 09:01:35;;;;;;;14.63;2.20;;;;;;;;;;5029199;28;20423;-64
2023/12/22 09:04:01;;;;;;;17.10;3.33;;;;;;;;;;5030010;28;20416;-65
2023/12/22 09:06:27;;;;;;;15.77;2.90;;;;;;;;;;5030220;28;20140;-64
2023/12/22 09:08:53;;;;;;;11.97;2.47;;;;;;;;;;5030320;28;20491;-65
2023/12/22 09:11:20;;;;;;;17.83;2.57;;;;;;;;;;5029850;28;20095;-64
2023/12/22 09:13:46;;;;;;;18.63;2.90;;;;;;;;;;5030037;28;20052;-64
2023/12/22 09:16:16;;;;;;;12.23;2.93;;;;;;;;;;5030595;28;20041;-64
2023/12/22 09:18:44;;;;;;;19.20;2.50;;;;;;;;;;5030234;28;20045;-64
2023/12/22 09:21:10;;;;;;;14.33;2.43;;;;;;;;;;5030237;28;20049;-64
2023/12/22 09:23:36;;;;;;;9.37;1.93;;;;;;;;;;5029863;28;20049;-64
2023/12/22 09:26:04;;;;;;;12.87;2.13;;;;;;;;;;5030099;28;20135;-65
2023/12/22 09:28:30;;;;;;;15.07;2.57;;;;;;;;;;5030163;28;20054;-64
2023/12/22 09:30:56;;;;;;;17.03;3.77;;;;;;;;;;5029391;28;20114;-64
2023/12/22 09:33:22;;;;;;;14.40;2.60;;;;;;;;;;5029588;28;20038;-65
2023/12/22 09:35:49;;;;;;;12.20;2.30;;;;;;;;;;5028785;28;20740;-65
2023/12/22 09:38:15;;;;;;;19.57;3.30;;;;;;;;;;5029817;28;20056;-65
2023/12/22 09:40:41;;;;;;;17.77;3.30;;;;;;;;;;5027911;28;20053;-65
2023/12/22 09:43:09;;;;;;;20.87;3.23;;;;;;;;;;5029281;28;20103;-65
2023/12/22 09:45:35;;;;;;;13.03;3.13;;;;;;;;;;5029034;28;20133;-65
2023/12/22 09:48:01;;;;;;;21.17;3.33;;;;;;;;;;5028695;28;20139;-65
2023/12/22 09:50:28;;;;;;;14.20;2.50;;;;;;;;;;5028811;28;20158;-65
2023/12/22 09:52:54;;;;;;;21.37;3.80;;;;;;;;;;5028802;28;20115;-65
2023/12/22 09:55:22;;;;;;;26.17;3.40;;;;;;;;;;5028151;28;20419;-64
2023/12/22 09:57:48;;;;;;;19.03;3.57;;;;;;;;;;5028657;28;20052;-65
2023/12/22 10:00:15;;;;;;;26.77;4.10;;;;;;;;;;5028577;28;20085;-64
2023/12/22 10:02:42;;;;;;;16.97;3.07;;;;;;;;;;5027992;28;20473;-65
2023/12/22 10:05:10;;;;;;;14.50;2.50;;;;;;;;;;5028906;28;20050;-65
2023/12/22 10:07:36;;;;;;;21.47;3.33;;;;;;;;;;5028604;28;20049;-65
2023/12/22 10:10:03;;;;;;;12.33;2.60;;;;;;;;;;5028551;28;20389;-65
2023/12/22 10:12:32;;;;;;;10.93;2.03;;;;;;;;;;5028446;28;20053;-64
2023/12/22 10:14:59;;;;;;;17.63;2.77;;;;;;;;;;5028361;28;20769;-65
2023/12/22 10:17:25;;;;;;;8.67;1.87;;;;;;;;;;5028625;28;20092;-64
2023/12/22 10:19:52;;;;;;;12.23;2.03;;;;;;;;;;5028243;28;20132;-64
2023/12/22 10:22:18;;;;;;;14.70;2.50;;;;;;;;;;5028006;28;20665;-65
2023/12/22 10:24:47;;;;;;;12.30;1.90;;;;;;;;;;5028209;28;20422;-65
2023/12/22 10:27:13;;;;;;;13.00;2.00;;;;;;;;;;5028350;28;20046;-64
2023/12/22 10:29:42;;;;;;;8.90;1.27;;;;;;;;;;5028200;28;20068;-65
2023/12/22 10:32:08;;;;;;;11.77;2.67;;;;;;;;;;5028163;28;20053;-64
2023/12/22 10:34:35;;;;;;;5.67;1.77;;;;;;;;;;5028079;28;20045;-64
2023/12/22 10:37:01;;;;;;;5.57;1.20;;;;;;;;;;5027568;28;20049;-65
2023/12/22 10:39:28;;;;;;;7.43;1.40;;;;;;;;;;5028028;28;20053;-64
2023/12/22 10:41:54;;;;;;;5.67;1.13;;;;;;;;;;5028096;28;20045;-64
2023/12/22 10:44:21;;;;;;;3.53;0.80;;;;;;;;;;5027745;28;20053;-64
2023/12/22 10:46:47;;;;;;;4.70;0.93;;;;;;;;;;5027566;28;20412;-65
2023/12/22 10:49:13;;;;;;;3.73;0.80;;;;;;;;;;5027459;28;20056;-64
2023/12/22 10:51:40;;;;;;;2.60;0.70;;;;;;;;;;5027896;28;21429;-64
2023/12/22 10:54:06;;;;;;;3.30;0.63;;;;;;;;;;5027928;28;20046;-64
2023/12/22 10:56:32;;;;;;;7.53;1.03;;;;;;;;;;5042971;28;20057;-64
2023/12/22 10:58:58;;;;;;;3.97;1.10;;;;;;;;;;5028246;28;20041;-64
2023/12/22 11:01:28;;;;;;;4.00;0.90;;;;;;;;;;5028076;28;20084;-64
2023/12/22 11:03:56;;;;;;;6.03;1.57;;;;;;;;;;5027277;28;20092;-64
2023/12/22 11:06:24;;;;;;;3.43;0.63;;;;;;;;;;5027702;28;20505;-64
2023/12/22 11:08:51;;;;;;;2.93;0.80;;;;;;;;;;5027762;28;20049;-64
2023/12/22 11:11:29;;;;;;;3.10;0.77;;;;;;;;;;5027981;28;20049;-64
2023/12/22 11:13:56;;;;;;;4.53;0.80;;;;;;;;;;5028165;28;20084;-64
2023/12/22 11:16:24;;;;;;;7.03;0.80;;;;;;;;;;5027312;28;20515;-65
2023/12/22 11:18:54;;;;;;;2.17;0.60;;;;;;;;;;5027612;28;20045;-64
2023/12/22 11:21:22;;;;;;;5.30;0.80;;;;;;;;;;5027717;28;20380;-64
2023/12/22 11:23:50;;;;;;;5.73;0.80;;;;;;;;;;5027928;28;20288;-64
2023/12/22 11:26:17;;;;;;;2.07;0.60;;;;;;;;;;5027875;28;20053;-64
2023/12/22 11:28:45;;;;;;;4.30;1.00;;;;;;;;;;5027087;28;20626;-65
2023/12/22 11:31:12;;;;;;;4.87;1.10;;;;;;;;;;5027504;28;20050;-64
2023/12/22 11:33:40;;;;;;;5.20;1.13;;;;;;;;;;5027341;28;20107;-64
2023/12/22 11:36:07;;;;;;;4.07;0.60;;;;;;;;;;5027770;28;20083;-64
2023/12/22 11:38:34;;;;;;;4.70;0.80;;;;;;;;;;5027280;28;20060;-64
2023/12/22 11:41:01;;;;;;;3.73;0.80;;;;;;;;;;5027072;28;20049;-64
2023/12/22 11:43:27;;;;;;;8.13;0.90;;;;;;;;;;5027360;28;20060;-64
2023/12/22 11:45:53;;;;;;;4.70;0.80;;;;;;;;;;5027503;28;20119;-64
2023/12/22 11:48:20;;;;;;;6.37;1.03;;;;;;;;;;5042890;28;20563;-64
2023/12/22 11:50:46;;;;;;;4.80;0.90;;;;;;;;;;5027413;28;20052;-64
2023/12/22 11:53:23;;;;;;;5.67;1.00;;;;;;;;;;5026862;28;20045;-64
2023/12/22 11:56:05;;;;;;;7.83;1.20;;;;;;;;;;5027262;28;20091;-64
2023/12/22 11:58:40;;;;;;;5.80;0.80;;;;;;;;;;5028402;28;20057;-64
2023/12/22 12:01:15;;;;;;;4.07;1.03;;;;;;;;;;5030079;28;20042;-64
2023/12/22 12:03:42;;;;;;;6.83;1.03;;;;;;;;;;5030646;28;20122;-64
2023/12/22 12:06:18;;;;;;;2.90;0.60;;;;;;;;;;5030718;28;20041;-64
2023/12/22 12:08:45;;;;;;;7.90;1.30;;;;;;;;;;5031187;28;20058;-65
2023/12/22 12:11:11;;;;;;;8.33;0.90;;;;;;;;;;5028587;28;20092;-65
2023/12/22 12:13:39;;;;;;;4.70;0.80;;;;;;;;;;5030299;28;20140;-64
2023/12/22 12:16:07;;;;;;;7.37;1.23;;;;;;;;;;5029023;28;20037;-64
2023/12/22 12:18:33;;;;;;;5.63;0.87;;;;;;;;;;5030141;28;20053;-64
2023/12/22 12:21:00;;;;;;;2.77;0.70;;;;;;;;;;5028480;28;20059;-65
2023/12/22 12:23:29;;;;;;;3.47;1.17;;;;;;;;;;5029490;28;20103;-64
2023/12/22 12:25:56;;;;;;;9.87;1.50;;;;;;;;;;5029345;28;20499;-64
2023/12/22 12:28:45;;;;;;;6.07;0.90;;;;;;;;;;5030367;28;20107;-64
2023/12/22 12:31:11;;;;;;;5.73;0.77;;;;;;;;;;5028471;28;20136;-64
2023/12/22 12:33:37;;;;;;;7.07;1.00;;;;;;;;;;5027468;28;20175;-64
2023/12/22 12:36:04;;;;;;;2.77;0.90;;;;;;;;;;5030778;28;20079;-64
2023/12/22 12:38:49;;;;;;;4.87;1.10;;;;;;;;;;5027787;28;20061;-65
2023/12/22 12:41:16;;;;;;;6.13;1.97;;;;;;;;;;5029735;28;20572;-64
2023/12/22 12:43:43;;;;;;;4.77;0.77;;;;;;;;;;5029669;28;20099;-65
2023/12/22 12:46:10;;;;;;;6.40;0.70;;;;;;;;;;5029397;28;20822;-64
2023/12/22 12:48:36;;;;;;;5.20;0.87;;;;;;;;;;5030267;28;20440;-64
2023/12/22 12:51:05;;;;;;;6.07;1.00;;;;;;;;;;5028934;28;20048;-64
2023/12/22 12:53:37;;;;;;;6.30;1.00;;;;;;;;;;5028106;28;20453;-64
2023/12/22 12:56:03;;;;;;;4.90;1.23;;;;;;;;;;5032385;28;20156;-64
2023/12/22 12:58:30;;;;;;;4.33;0.83;;;;;;;;;;5026608;28;20618;-64
2023/12/22 13:01:12;;;;;;;7.90;1.10;;;;;;;;;;5028332;28;20565;-64
2023/12/22 13:03:57;;;;;;;5.80;1.40;;;;;;;;;;5030508;28;20057;-64
2023/12/22 13:06:24;;;;;;;3.60;1.00;;;;;;;;;;5030054;28;20422;-64
2023/12/22 13:08:50;;;;;;;9.60;1.10;;;;;;;;;;5030371;28;20041;-64
2023/12/22 13:11:23;;;;;;;2.97;0.97;;;;;;;;;;5030145;28;20605;-65
2023/12/22 13:13:50;;;;;;;9.00;1.48;;;;;;;;;;5030115;28;20077;-64
2023/12/22 13:16:26;;;;;;;9.13;1.10;;;;;;;;;;5028959;28;20053;-65
2023/12/22 13:18:52;;;;;;;8.93;1.53;;;;;;;;;;5029982;28;20045;-64
2023/12/22 13:21:18;;;;;;;11.90;1.50;;;;;;;;;;5029979;28;20100;-64
2023/12/22 13:23:44;;;;;;;9.13;1.20;;;;;;;;;;5029904;28;20080;-64
2023/12/22 13:26:20;;;;;;;6.17;1.00;;;;;;;;;;5029990;28;20077;-65
2023/12/22 13:28:46;;;;;;;10.30;1.80;;;;;;;;;;5029795;28;20476;-64
2023/12/22 13:31:18;;;;;;;8.83;1.60;;;;;;;;;;5029312;28;20112;-64
2023/12/22 13:33:44;;;;;;;4.63;1.70;;;;;;;;;;5029752;28;20332;-64
2023/12/22 13:36:10;;;;;;;12.40;1.90;;;;;;;;;;5029904;28;20112;-64
2023/12/22 13:38:36;;;;;;;8.37;1.80;;;;;;;;;;5029595;28;20050;-64
2023/12/22 13:41:03;;;;;;;6.77;1.23;;;;;;;;;;5029293;28;20518;-64
2023/12/22 13:43:29;;;;;;;11.67;1.80;;;;;;;;;;5029706;28;20136;-64
2023/12/22 13:45:55;;;;;;;6.70;1.20;;;;;;;;;;5028308;28;20049;-65
2023/12/22 13:48:21;;;;;;;4.67;1.13;;;;;;;;;;5028009;28;20041;-64
2023/12/22 13:50:58;;;;;;;7.60;1.20;;;;;;;;;;5028528;28;20057;-64
2023/12/22 13:53:24;;;;;;;9.83;1.73;;;;;;;;;;5029580;28;20507;-64
2023/12/22 13:55:57;;;;;;;10.57;1.73;;;;;;;;;;5028926;28;20049;-64
2023/12/22 13:58:23;;;;;;;10.38;1.25;;;;;;;;;;5028437;28;20081;-64
2023/12/22 14:00:50;;;;;;;9.73;1.50;;;;;;;;;;5028256;28;20419;-65
2023/12/22 14:03:22;;;;;;;12.77;2.03;;;;;;;;;;5029520;28;20053;-65
2023/12/22 14:05:53;;;;;;;7.63;1.30;;;;;;;;;;5025859;28;20049;-65
2023/12/22 14:08:19;;;;;;;10.13;1.30;;;;;;;;;;5029277;28;20045;-65
2023/12/22 14:10:48;;;;;;;12.73;1.37;;;;;;;;;;5029278;28;20446;-65
2023/12/22 14:13:15;;;;;;;13.07;1.40;;;;;;;;;;5029228;28;20077;-65
2023/12/22 14:15:44;;;;;;;22.50;2.40;;;;;;;;;;5028732;28;20527;-66
2023/12/22 14:18:10;;;;;;;11.67;1.60;;;;;;;;;;5028474;28;20057;-65
2023/12/22 14:20:36;;;;;;;14.50;1.50;;;;;;;;;;5027274;28;20057;-66
2023/12/22 14:23:03;;;;;;;5.53;1.17;;;;;;;;;;5027759;28;20136;-65
2023/12/22 14:25:31;;;;;;;7.07;1.10;;;;;;;;;;5028039;28;20116;-65
2023/12/22 14:27:58;;;;;;;13.07;1.23;;;;;;;;;;5029173;28;20045;-65
2023/12/22 14:30:24;;;;;;;16.93;1.40;;;;;;;;;;5028436;28;20057;-65
2023/12/22 14:32:50;;;;;;;10.93;1.43;;;;;;;;;;5027588;28;20427;-66